sensor_id;sensor_type;location;lat;lon;timestamp;P1;durP1;ratioP1;P2;durP2;ratioP2
55170;SDS011;41060;47.510;8.680;2022-08-19T00:01:13;8.45;;;4.80;;
55170;SDS011;41060;47.510;8.680;2022-08-19T00:03:40;6.82;;;3.88;;
55170;SDS011;41060;47.510;8.680;2022-08-19T00:06:07;8.68;;;4.45;;
55170;SDS011;41060;47.510;8.680;2022-08-19T00:08:35;7.60;;;4.63;;
55170;SDS011;41060;47.510;8.680;2022-08-19T00:11:02;8.23;;;4.70;;
55170;SDS011;41060;47.510;8.680;2022-08-19T00:13:30;8.90;;;4.15;;
55170;SDS011;41060;47.510;8.680;2022-08-19T00:15:57;8.10;;;4.03;;
55170;SDS011;41060;47.510;8.680;2022-08-19T00:18:24;6.30;;;3.63;;
55170;SDS011;41060;47.510;8.680;2022-08-19T00:20:53;6.60;;;3.90;;
55170;SDS011;41060;47.510;8.680;2022-08-19T00:23:21;5.47;;;3.50;;
55170;SDS011;41060;47.510;8.680;2022-08-19T00:25:47;7.85;;;4.38;;
55170;SDS011;41060;47.510;8.680;2022-08-19T00:28:14;7.85;;;4.32;;
55170;SDS011;41060;47.510;8.680;2022-08-19T00:30:43;6.28;;;3.88;;
55170;SDS011;41060;47.510;8.680;2022-08-19T00:33:09;6.15;;;3.33;;
55170;SDS011;41060;47.510;8.680;2022-08-19T00:35:36;6.38;;;3.17;;
55170;SDS011;41060;47.510;8.680;2022-08-19T00:38:06;4.90;;;2.50;;
55170;SDS011;41060;47.510;8.680;2022-08-19T00:40:33;4.38;;;2.67;;
55170;SDS011;41060;47.510;8.680;2022-08-19T00:43:00;7.85;;;3.33;;
55170;SDS011;41060;47.510;8.680;2022-08-19T00:45:27;4.60;;;2.97;;
55170;SDS011;41060;47.510;8.680;2022-08-19T00:47:59;5.47;;;2.97;;
55170;SDS011;41060;47.510;8.680;2022-08-19T00:50:29;7.18;;;3.55;;
55170;SDS011;41060;47.510;8.680;2022-08-19T00:52:56;6.10;;;3.00;;
55170;SDS011;41060;47.510;8.680;2022-08-19T00:55:26;4.45;;;2.25;;
55170;SDS011;41060;47.510;8.680;2022-08-19T00:57:59;5.50;;;3.17;;
55170;SDS011;41060;47.510;8.680;2022-08-19T01:00:28;5.18;;;3.13;;
55170;SDS011;41060;47.510;8.680;2022-08-19T01:02:56;8.57;;;4.00;;
55170;SDS011;41060;47.510;8.680;2022-08-19T01:05:25;5.32;;;2.90;;
55170;SDS011;41060;47.510;8.680;2022-08-19T01:07:58;5.65;;;3.33;;
55170;SDS011;41060;47.510;8.680;2022-08-19T01:12:55;8.57;;;3.97;;
55170;SDS011;41060;47.510;8.680;2022-08-19T01:15:27;7.30;;;4.03;;
55170;SDS011;41060;47.510;8.680;2022-08-19T01:17:57;6.93;;;3.92;;
55170;SDS011;41060;47.510;8.680;2022-08-19T01:20:28;9.15;;;4.10;;
55170;SDS011;41060;47.510;8.680;2022-08-19T01:22:57;6.50;;;3.80;;
55170;SDS011;41060;47.510;8.680;2022-08-19T01:25:26;7.78;;;3.63;;
55170;SDS011;41060;47.510;8.680;2022-08-19T01:30:27;7.60;;;3.72;;
55170;SDS011;41060;47.510;8.680;2022-08-19T01:32:55;8.50;;;4.00;;
55170;SDS011;41060;47.510;8.680;2022-08-19T01:35:24;5.82;;;3.63;;
55170;SDS011;41060;47.510;8.680;2022-08-19T01:37:59;5.97;;;3.60;;
55170;SDS011;41060;47.510;8.680;2022-08-19T01:40:28;8.13;;;4.18;;
55170;SDS011;41060;47.510;8.680;2022-08-19T01:42:58;6.80;;;3.80;;
55170;SDS011;41060;47.510;8.680;2022-08-19T01:45:26;7.78;;;3.72;;
55170;SDS011;41060;47.510;8.680;2022-08-19T01:47:54;5.50;;;2.97;;
55170;SDS011;41060;47.510;8.680;2022-08-19T01:50:22;6.32;;;4.15;;
55170;SDS011;41060;47.510;8.680;2022-08-19T01:52:49;5.95;;;3.35;;
55170;SDS011;41060;47.510;8.680;2022-08-19T01:55:18;7.45;;;3.33;;
55170;SDS011;41060;47.510;8.680;2022-08-19T01:57:50;5.60;;;3.30;;
55170;SDS011;41060;47.510;8.680;2022-08-19T02:00:20;6.50;;;3.40;;
55170;SDS011;41060;47.510;8.680;2022-08-19T02:02:50;5.28;;;3.63;;
55170;SDS011;41060;47.510;8.680;2022-08-19T02:05:17;7.50;;;3.97;;
55170;SDS011;41060;47.510;8.680;2022-08-19T02:07:46;6.78;;;3.40;;
55170;SDS011;41060;47.510;8.680;2022-08-19T02:10:14;10.00;;;3.58;;
55170;SDS011;41060;47.510;8.680;2022-08-19T02:12:42;7.75;;;3.95;;
55170;SDS011;41060;47.510;8.680;2022-08-19T02:15:11;6.20;;;3.25;;
55170;SDS011;41060;47.510;8.680;2022-08-19T02:17:38;6.55;;;3.40;;
55170;SDS011;41060;47.510;8.680;2022-08-19T02:20:06;6.00;;;3.50;;
55170;SDS011;41060;47.510;8.680;2022-08-19T02:22:33;6.05;;;3.38;;
55170;SDS011;41060;47.510;8.680;2022-08-19T02:25:01;6.50;;;3.97;;
55170;SDS011;41060;47.510;8.680;2022-08-19T02:27:29;7.35;;;3.83;;
55170;SDS011;41060;47.510;8.680;2022-08-19T02:29:58;7.05;;;4.18;;
55170;SDS011;41060;47.510;8.680;2022-08-19T02:32:26;6.82;;;3.78;;
55170;SDS011;41060;47.510;8.680;2022-08-19T02:34:53;7.05;;;4.07;;
55170;SDS011;41060;47.510;8.680;2022-08-19T02:37:19;6.15;;;3.83;;
55170;SDS011;41060;47.510;8.680;2022-08-19T02:40:05;10.75;;;4.68;;
55170;SDS011;41060;47.510;8.680;2022-08-19T02:42:32;8.57;;;4.80;;
55170;SDS011;41060;47.510;8.680;2022-08-19T02:45:01;5.88;;;3.65;;
55170;SDS011;41060;47.510;8.680;2022-08-19T02:47:30;6.72;;;4.10;;
55170;SDS011;41060;47.510;8.680;2022-08-19T02:49:57;5.75;;;3.70;;
55170;SDS011;41060;47.510;8.680;2022-08-19T02:52:24;9.55;;;3.92;;
55170;SDS011;41060;47.510;8.680;2022-08-19T02:54:52;8.38;;;4.07;;
55170;SDS011;41060;47.510;8.680;2022-08-19T02:57:22;9.35;;;4.50;;
55170;SDS011;41060;47.510;8.680;2022-08-19T02:59:49;6.50;;;4.38;;
55170;SDS011;41060;47.510;8.680;2022-08-19T03:02:18;8.65;;;4.53;;
55170;SDS011;41060;47.510;8.680;2022-08-19T03:04:45;9.60;;;4.80;;
55170;SDS011;41060;47.510;8.680;2022-08-19T03:07:12;5.72;;;3.78;;
55170;SDS011;41060;47.510;8.680;2022-08-19T03:09:40;8.20;;;4.32;;
55170;SDS011;41060;47.510;8.680;2022-08-19T03:12:10;8.65;;;4.80;;
55170;SDS011;41060;47.510;8.680;2022-08-19T03:14:37;7.03;;;4.47;;
55170;SDS011;41060;47.510;8.680;2022-08-19T03:17:04;9.88;;;4.65;;
55170;SDS011;41060;47.510;8.680;2022-08-19T03:19:32;8.35;;;4.95;;
55170;SDS011;41060;47.510;8.680;2022-08-19T03:21:59;8.65;;;4.43;;
55170;SDS011;41060;47.510;8.680;2022-08-19T03:24:28;8.60;;;5.00;;
55170;SDS011;41060;47.510;8.680;2022-08-19T03:26:56;8.88;;;5.20;;
55170;SDS011;41060;47.510;8.680;2022-08-19T03:29:24;10.32;;;5.15;;
55170;SDS011;41060;47.510;8.680;2022-08-19T03:31:52;9.32;;;4.90;;
55170;SDS011;41060;47.510;8.680;2022-08-19T03:34:20;10.38;;;4.32;;
55170;SDS011;41060;47.510;8.680;2022-08-19T03:36:52;7.82;;;4.18;;
55170;SDS011;41060;47.510;8.680;2022-08-19T03:39:20;11.25;;;5.07;;
55170;SDS011;41060;47.510;8.680;2022-08-19T03:41:48;11.80;;;5.43;;
55170;SDS011;41060;47.510;8.680;2022-08-19T03:44:18;7.28;;;4.53;;
55170;SDS011;41060;47.510;8.680;2022-08-19T03:46:47;7.00;;;4.32;;
55170;SDS011;41060;47.510;8.680;2022-08-19T03:49:15;8.65;;;4.32;;
55170;SDS011;41060;47.510;8.680;2022-08-19T03:51:43;7.88;;;4.13;;
55170;SDS011;41060;47.510;8.680;2022-08-19T03:54:12;9.32;;;5.05;;
55170;SDS011;41060;47.510;8.680;2022-08-19T03:56:42;8.80;;;4.50;;
55170;SDS011;41060;47.510;8.680;2022-08-19T03:59:12;8.48;;;5.05;;
55170;SDS011;41060;47.510;8.680;2022-08-19T04:01:41;8.65;;;4.95;;
55170;SDS011;41060;47.510;8.680;2022-08-19T04:04:08;9.63;;;5.40;;
55170;SDS011;41060;47.510;8.680;2022-08-19T04:06:36;11.77;;;5.82;;
55170;SDS011;41060;47.510;8.680;2022-08-19T04:09:05;11.80;;;5.55;;
55170;SDS011;41060;47.510;8.680;2022-08-19T04:11:37;15.13;;;6.70;;
55170;SDS011;41060;47.510;8.680;2022-08-19T04:14:07;9.15;;;5.18;;
55170;SDS011;41060;47.510;8.680;2022-08-19T04:16:36;12.15;;;5.53;;
55170;SDS011;41060;47.510;8.680;2022-08-19T04:19:06;9.18;;;5.20;;
55170;SDS011;41060;47.510;8.680;2022-08-19T04:21:33;11.52;;;5.53;;
55170;SDS011;41060;47.510;8.680;2022-08-19T04:24:01;14.25;;;6.85;;
55170;SDS011;41060;47.510;8.680;2022-08-19T04:26:29;13.32;;;7.10;;
55170;SDS011;41060;47.510;8.680;2022-08-19T04:28:59;12.57;;;6.53;;
55170;SDS011;41060;47.510;8.680;2022-08-19T04:31:28;12.48;;;7.32;;
55170;SDS011;41060;47.510;8.680;2022-08-19T04:33:57;14.45;;;6.95;;
55170;SDS011;41060;47.510;8.680;2022-08-19T04:36:26;13.98;;;6.65;;
55170;SDS011;41060;47.510;8.680;2022-08-19T04:38:55;14.43;;;6.00;;
55170;SDS011;41060;47.510;8.680;2022-08-19T04:41:26;12.73;;;7.47;;
55170;SDS011;41060;47.510;8.680;2022-08-19T04:44:12;12.65;;;6.30;;
55170;SDS011;41060;47.510;8.680;2022-08-19T04:46:43;12.95;;;6.47;;
55170;SDS011;41060;47.510;8.680;2022-08-19T04:49:10;15.85;;;7.10;;
55170;SDS011;41060;47.510;8.680;2022-08-19T04:51:39;12.43;;;6.25;;
55170;SDS011;41060;47.510;8.680;2022-08-19T04:54:07;13.73;;;6.70;;
55170;SDS011;41060;47.510;8.680;2022-08-19T04:56:34;12.52;;;6.88;;
55170;SDS011;41060;47.510;8.680;2022-08-19T04:59:01;11.18;;;5.72;;
55170;SDS011;41060;47.510;8.680;2022-08-19T05:01:31;12.73;;;6.70;;
55170;SDS011;41060;47.510;8.680;2022-08-19T05:04:02;16.08;;;6.47;;
55170;SDS011;41060;47.510;8.680;2022-08-19T05:06:31;13.90;;;7.13;;
55170;SDS011;41060;47.510;8.680;2022-08-19T05:08:59;11.43;;;5.85;;
55170;SDS011;41060;47.510;8.680;2022-08-19T05:11:27;13.88;;;7.15;;
55170;SDS011;41060;47.510;8.680;2022-08-19T05:13:55;14.95;;;7.22;;
55170;SDS011;41060;47.510;8.680;2022-08-19T05:16:23;16.60;;;7.22;;
55170;SDS011;41060;47.510;8.680;2022-08-19T05:18:54;9.95;;;6.68;;
55170;SDS011;41060;47.510;8.680;2022-08-19T05:21:39;11.05;;;6.63;;
55170;SDS011;41060;47.510;8.680;2022-08-19T05:24:24;13.70;;;6.35;;
55170;SDS011;41060;47.510;8.680;2022-08-19T05:26:52;8.88;;;5.53;;
55170;SDS011;41060;47.510;8.680;2022-08-19T05:29:21;14.23;;;6.93;;
55170;SDS011;41060;47.510;8.680;2022-08-19T05:31:50;9.57;;;6.38;;
55170;SDS011;41060;47.510;8.680;2022-08-19T05:34:19;11.13;;;5.78;;
55170;SDS011;41060;47.510;8.680;2022-08-19T05:36:50;11.88;;;5.57;;
55170;SDS011;41060;47.510;8.680;2022-08-19T05:39:25;10.00;;;6.18;;
55170;SDS011;41060;47.510;8.680;2022-08-19T05:41:54;12.88;;;6.10;;
55170;SDS011;41060;47.510;8.680;2022-08-19T05:44:23;11.85;;;6.38;;
55170;SDS011;41060;47.510;8.680;2022-08-19T05:46:51;11.02;;;6.25;;
55170;SDS011;41060;47.510;8.680;2022-08-19T05:49:21;13.18;;;6.22;;
55170;SDS011;41060;47.510;8.680;2022-08-19T05:51:50;15.05;;;6.88;;
55170;SDS011;41060;47.510;8.680;2022-08-19T05:54:17;12.60;;;6.32;;
55170;SDS011;41060;47.510;8.680;2022-08-19T05:56:45;14.68;;;7.40;;
55170;SDS011;41060;47.510;8.680;2022-08-19T05:59:12;12.85;;;7.13;;
55170;SDS011;41060;47.510;8.680;2022-08-19T06:01:42;13.10;;;6.38;;
55170;SDS011;41060;47.510;8.680;2022-08-19T06:04:11;11.98;;;6.65;;
55170;SDS011;41060;47.510;8.680;2022-08-19T06:06:41;10.90;;;6.22;;
55170;SDS011;41060;47.510;8.680;2022-08-19T06:09:07;14.15;;;6.72;;
55170;SDS011;41060;47.510;8.680;2022-08-19T06:11:36;14.18;;;6.70;;
55170;SDS011;41060;47.510;8.680;2022-08-19T06:14:05;10.70;;;6.07;;
55170;SDS011;41060;47.510;8.680;2022-08-19T06:16:36;15.63;;;6.10;;
55170;SDS011;41060;47.510;8.680;2022-08-19T06:19:05;8.93;;;4.78;;
55170;SDS011;41060;47.510;8.680;2022-08-19T06:21:34;8.88;;;5.60;;
55170;SDS011;41060;47.510;8.680;2022-08-19T06:24:06;8.25;;;5.40;;
55170;SDS011;41060;47.510;8.680;2022-08-19T06:26:38;9.48;;;5.18;;
55170;SDS011;41060;47.510;8.680;2022-08-19T06:29:08;7.25;;;4.32;;
55170;SDS011;41060;47.510;8.680;2022-08-19T06:31:36;8.32;;;4.22;;
55170;SDS011;41060;47.510;8.680;2022-08-19T06:34:16;9.15;;;3.92;;
55170;SDS011;41060;47.510;8.680;2022-08-19T06:36:44;7.72;;;4.65;;
55170;SDS011;41060;47.510;8.680;2022-08-19T06:39:15;9.48;;;5.13;;
55170;SDS011;41060;47.510;8.680;2022-08-19T06:41:44;11.02;;;5.90;;
55170;SDS011;41060;47.510;8.680;2022-08-19T06:44:14;13.02;;;5.20;;
55170;SDS011;41060;47.510;8.680;2022-08-19T06:46:41;9.52;;;5.07;;
55170;SDS011;41060;47.510;8.680;2022-08-19T06:49:09;9.40;;;5.20;;
55170;SDS011;41060;47.510;8.680;2022-08-19T06:51:39;7.28;;;3.88;;
55170;SDS011;41060;47.510;8.680;2022-08-19T06:54:09;9.00;;;4.90;;
55170;SDS011;41060;47.510;8.680;2022-08-19T06:56:37;9.32;;;4.50;;
55170;SDS011;41060;47.510;8.680;2022-08-19T06:59:06;7.53;;;4.55;;
55170;SDS011;41060;47.510;8.680;2022-08-19T07:01:38;8.77;;;4.83;;
55170;SDS011;41060;47.510;8.680;2022-08-19T07:04:07;10.93;;;5.38;;
55170;SDS011;41060;47.510;8.680;2022-08-19T07:06:35;7.22;;;4.13;;
55170;SDS011;41060;47.510;8.680;2022-08-19T07:09:03;9.68;;;4.88;;
55170;SDS011;41060;47.510;8.680;2022-08-19T07:11:30;8.68;;;4.57;;
55170;SDS011;41060;47.510;8.680;2022-08-19T07:13:59;8.10;;;5.18;;
55170;SDS011;41060;47.510;8.680;2022-08-19T07:16:26;10.68;;;5.40;;
55170;SDS011;41060;47.510;8.680;2022-08-19T07:18:53;8.23;;;5.03;;
55170;SDS011;41060;47.510;8.680;2022-08-19T07:21:21;8.55;;;4.72;;
55170;SDS011;41060;47.510;8.680;2022-08-19T07:23:51;6.18;;;3.92;;
55170;SDS011;41060;47.510;8.680;2022-08-19T07:26:20;6.93;;;4.30;;
55170;SDS011;41060;47.510;8.680;2022-08-19T07:28:48;7.30;;;4.13;;
55170;SDS011;41060;47.510;8.680;2022-08-19T07:31:17;6.45;;;4.05;;
55170;SDS011;41060;47.510;8.680;2022-08-19T07:33:46;10.30;;;4.40;;
55170;SDS011;41060;47.510;8.680;2022-08-19T07:36:15;10.68;;;4.75;;
55170;SDS011;41060;47.510;8.680;2022-08-19T07:38:45;9.48;;;5.28;;
55170;SDS011;41060;47.510;8.680;2022-08-19T07:41:15;9.10;;;5.35;;
55170;SDS011;41060;47.510;8.680;2022-08-19T07:43:46;10.20;;;5.55;;
55170;SDS011;41060;47.510;8.680;2022-08-19T07:46:13;7.60;;;4.50;;
55170;SDS011;41060;47.510;8.680;2022-08-19T07:48:44;11.20;;;4.70;;
55170;SDS011;41060;47.510;8.680;2022-08-19T07:51:12;12.35;;;5.60;;
55170;SDS011;41060;47.510;8.680;2022-08-19T07:53:40;6.97;;;5.13;;
55170;SDS011;41060;47.510;8.680;2022-08-19T07:56:08;8.25;;;4.07;;
55170;SDS011;41060;47.510;8.680;2022-08-19T07:58:37;8.43;;;5.03;;
55170;SDS011;41060;47.510;8.680;2022-08-19T08:01:07;7.68;;;4.35;;
55170;SDS011;41060;47.510;8.680;2022-08-19T08:03:36;8.48;;;4.85;;
55170;SDS011;41060;47.510;8.680;2022-08-19T08:06:22;7.43;;;4.20;;
55170;SDS011;41060;47.510;8.680;2022-08-19T08:09:07;8.93;;;4.30;;
55170;SDS011;41060;47.510;8.680;2022-08-19T08:11:41;8.63;;;4.63;;
55170;SDS011;41060;47.510;8.680;2022-08-19T08:14:14;7.03;;;3.95;;
55170;SDS011;41060;47.510;8.680;2022-08-19T08:16:44;7.03;;;4.38;;
55170;SDS011;41060;47.510;8.680;2022-08-19T08:19:11;7.15;;;4.00;;
55170;SDS011;41060;47.510;8.680;2022-08-19T08:21:41;7.68;;;4.32;;
55170;SDS011;41060;47.510;8.680;2022-08-19T08:24:09;8.45;;;4.10;;
55170;SDS011;41060;47.510;8.680;2022-08-19T08:26:37;7.90;;;4.40;;
55170;SDS011;41060;47.510;8.680;2022-08-19T08:29:04;8.90;;;4.45;;
55170;SDS011;41060;47.510;8.680;2022-08-19T08:31:33;9.00;;;5.10;;
55170;SDS011;41060;47.510;8.680;2022-08-19T08:34:00;8.65;;;5.25;;
55170;SDS011;41060;47.510;8.680;2022-08-19T08:36:27;8.80;;;4.75;;
55170;SDS011;41060;47.510;8.680;2022-08-19T08:38:59;7.57;;;4.70;;
55170;SDS011;41060;47.510;8.680;2022-08-19T08:41:28;9.70;;;4.47;;
55170;SDS011;41060;47.510;8.680;2022-08-19T08:44:01;7.38;;;3.85;;
55170;SDS011;41060;47.510;8.680;2022-08-19T08:46:32;8.48;;;4.40;;
55170;SDS011;41060;47.510;8.680;2022-08-19T08:49:04;6.95;;;4.70;;
55170;SDS011;41060;47.510;8.680;2022-08-19T08:51:38;7.00;;;4.03;;
55170;SDS011;41060;47.510;8.680;2022-08-19T08:54:11;5.93;;;3.58;;
55170;SDS011;41060;47.510;8.680;2022-08-19T08:56:41;6.55;;;4.10;;
55170;SDS011;41060;47.510;8.680;2022-08-19T08:59:10;8.77;;;5.00;;
55170;SDS011;41060;47.510;8.680;2022-08-19T09:01:43;7.82;;;4.60;;
55170;SDS011;41060;47.510;8.680;2022-08-19T09:04:10;6.70;;;4.28;;
55170;SDS011;41060;47.510;8.680;2022-08-19T09:06:40;9.18;;;4.75;;
55170;SDS011;41060;47.510;8.680;2022-08-19T09:09:19;8.80;;;4.43;;
55170;SDS011;41060;47.510;8.680;2022-08-19T09:11:55;9.68;;;4.68;;
55170;SDS011;41060;47.510;8.680;2022-08-19T09:14:34;10.43;;;5.10;;
55170;SDS011;41060;47.510;8.680;2022-08-19T09:17:06;7.82;;;3.70;;
55170;SDS011;41060;47.510;8.680;2022-08-19T09:19:34;7.15;;;4.53;;
55170;SDS011;41060;47.510;8.680;2022-08-19T09:22:02;8.00;;;4.45;;
55170;SDS011;41060;47.510;8.680;2022-08-19T09:24:31;8.45;;;4.78;;
55170;SDS011;41060;47.510;8.680;2022-08-19T09:26:58;8.32;;;4.95;;
55170;SDS011;41060;47.510;8.680;2022-08-19T09:29:26;7.65;;;4.00;;
55170;SDS011;41060;47.510;8.680;2022-08-19T09:31:53;10.80;;;5.50;;
55170;SDS011;41060;47.510;8.680;2022-08-19T09:34:21;9.45;;;4.90;;
55170;SDS011;41060;47.510;8.680;2022-08-19T09:36:47;8.60;;;4.25;;
55170;SDS011;41060;47.510;8.680;2022-08-19T09:39:21;12.77;;;6.60;;
55170;SDS011;41060;47.510;8.680;2022-08-19T09:41:51;11.68;;;6.25;;
55170;SDS011;41060;47.510;8.680;2022-08-19T09:44:18;10.32;;;5.72;;
55170;SDS011;41060;47.510;8.680;2022-08-19T09:46:46;12.40;;;7.03;;
55170;SDS011;41060;47.510;8.680;2022-08-19T09:49:13;9.95;;;5.72;;
55170;SDS011;41060;47.510;8.680;2022-08-19T09:51:39;12.48;;;6.57;;
55170;SDS011;41060;47.510;8.680;2022-08-19T09:54:07;10.73;;;5.93;;
55170;SDS011;41060;47.510;8.680;2022-08-19T09:56:36;9.52;;;5.63;;
55170;SDS011;41060;47.510;8.680;2022-08-19T09:59:04;9.20;;;5.68;;
55170;SDS011;41060;47.510;8.680;2022-08-19T10:01:31;11.23;;;5.80;;
55170;SDS011;41060;47.510;8.680;2022-08-19T10:03:59;11.70;;;6.72;;
55170;SDS011;41060;47.510;8.680;2022-08-19T10:06:27;17.23;;;8.43;;
55170;SDS011;41060;47.510;8.680;2022-08-19T10:08:58;12.25;;;5.90;;
55170;SDS011;41060;47.510;8.680;2022-08-19T10:11:25;13.88;;;7.97;;
55170;SDS011;41060;47.510;8.680;2022-08-19T10:13:53;14.85;;;6.45;;
55170;SDS011;41060;47.510;8.680;2022-08-19T10:16:22;13.95;;;7.70;;
55170;SDS011;41060;47.510;8.680;2022-08-19T10:18:50;12.73;;;6.82;;
55170;SDS011;41060;47.510;8.680;2022-08-19T10:21:19;11.00;;;6.53;;
55170;SDS011;41060;47.510;8.680;2022-08-19T10:23:49;13.68;;;7.53;;
55170;SDS011;41060;47.510;8.680;2022-08-19T10:26:20;14.55;;;8.02;;
55170;SDS011;41060;47.510;8.680;2022-08-19T10:28:49;13.02;;;7.18;;
55170;SDS011;41060;47.510;8.680;2022-08-19T10:31:18;12.57;;;5.72;;
55170;SDS011;41060;47.510;8.680;2022-08-19T10:33:50;12.98;;;6.85;;
55170;SDS011;41060;47.510;8.680;2022-08-19T10:36:23;17.27;;;8.23;;
55170;SDS011;41060;47.510;8.680;2022-08-19T10:38:52;13.40;;;7.28;;
55170;SDS011;41060;47.510;8.680;2022-08-19T10:41:22;12.90;;;6.53;;
55170;SDS011;41060;47.510;8.680;2022-08-19T10:43:51;15.63;;;8.82;;
55170;SDS011;41060;47.510;8.680;2022-08-19T10:46:20;13.13;;;7.15;;
55170;SDS011;41060;47.510;8.680;2022-08-19T10:48:48;14.55;;;7.43;;
55170;SDS011;41060;47.510;8.680;2022-08-19T10:51:20;12.82;;;7.50;;
55170;SDS011;41060;47.510;8.680;2022-08-19T10:54:04;15.73;;;7.80;;
55170;SDS011;41060;47.510;8.680;2022-08-19T10:56:34;14.90;;;7.78;;
55170;SDS011;41060;47.510;8.680;2022-08-19T10:59:21;17.70;;;8.50;;
55170;SDS011;41060;47.510;8.680;2022-08-19T11:01:49;15.73;;;8.80;;
55170;SDS011;41060;47.510;8.680;2022-08-19T11:04:18;17.67;;;8.60;;
55170;SDS011;41060;47.510;8.680;2022-08-19T11:06:48;13.90;;;7.60;;
55170;SDS011;41060;47.510;8.680;2022-08-19T11:09:16;13.40;;;5.72;;
55170;SDS011;41060;47.510;8.680;2022-08-19T11:11:47;15.82;;;8.45;;
55170;SDS011;41060;47.510;8.680;2022-08-19T11:14:16;15.50;;;7.72;;
55170;SDS011;41060;47.510;8.680;2022-08-19T11:16:46;15.00;;;7.10;;
55170;SDS011;41060;47.510;8.680;2022-08-19T11:19:13;11.07;;;7.35;;
55170;SDS011;41060;47.510;8.680;2022-08-19T11:21:46;16.02;;;8.45;;
55170;SDS011;41060;47.510;8.680;2022-08-19T11:24:15;13.88;;;8.27;;
55170;SDS011;41060;47.510;8.680;2022-08-19T11:26:45;18.35;;;7.72;;
55170;SDS011;41060;47.510;8.680;2022-08-19T11:29:15;16.27;;;7.68;;
55170;SDS011;41060;47.510;8.680;2022-08-19T11:31:43;15.90;;;7.70;;
55170;SDS011;41060;47.510;8.680;2022-08-19T11:34:12;17.85;;;8.13;;
55170;SDS011;41060;47.510;8.680;2022-08-19T11:36:43;12.55;;;7.80;;
55170;SDS011;41060;47.510;8.680;2022-08-19T11:39:13;14.32;;;8.50;;
55170;SDS011;41060;47.510;8.680;2022-08-19T11:41:41;12.65;;;7.50;;
55170;SDS011;41060;47.510;8.680;2022-08-19T11:44:08;15.68;;;7.82;;
55170;SDS011;41060;47.510;8.680;2022-08-19T11:46:36;15.90;;;8.00;;
55170;SDS011;41060;47.510;8.680;2022-08-19T11:49:04;16.90;;;8.05;;
55170;SDS011;41060;47.510;8.680;2022-08-19T11:51:35;16.15;;;9.27;;
55170;SDS011;41060;47.510;8.680;2022-08-19T11:54:04;13.25;;;7.85;;
55170;SDS011;41060;47.510;8.680;2022-08-19T11:56:31;17.50;;;8.70;;
55170;SDS011;41060;47.510;8.680;2022-08-19T11:59:00;18.73;;;8.75;;
55170;SDS011;41060;47.510;8.680;2022-08-19T12:01:27;14.15;;;8.30;;
55170;SDS011;41060;47.510;8.680;2022-08-19T12:03:55;18.27;;;9.27;;
55170;SDS011;41060;47.510;8.680;2022-08-19T12:06:24;19.00;;;8.85;;
55170;SDS011;41060;47.510;8.680;2022-08-19T12:09:00;18.83;;;8.93;;
55170;SDS011;41060;47.510;8.680;2022-08-19T12:11:31;15.38;;;8.52;;
55170;SDS011;41060;47.510;8.680;2022-08-19T12:13:58;14.65;;;9.23;;
55170;SDS011;41060;47.510;8.680;2022-08-19T12:16:25;14.43;;;7.38;;
55170;SDS011;41060;47.510;8.680;2022-08-19T12:18:54;17.83;;;8.63;;
55170;SDS011;41060;47.510;8.680;2022-08-19T12:21:23;17.90;;;9.07;;
55170;SDS011;41060;47.510;8.680;2022-08-19T12:23:52;17.33;;;9.80;;
55170;SDS011;41060;47.510;8.680;2022-08-19T12:26:20;17.55;;;9.18;;
55170;SDS011;41060;47.510;8.680;2022-08-19T12:28:48;16.83;;;8.90;;
55170;SDS011;41060;47.510;8.680;2022-08-19T12:31:15;17.33;;;9.30;;
55170;SDS011;41060;47.510;8.680;2022-08-19T12:33:43;18.13;;;10.27;;
55170;SDS011;41060;47.510;8.680;2022-08-19T12:36:11;18.58;;;9.43;;
55170;SDS011;41060;47.510;8.680;2022-08-19T12:38:38;20.38;;;9.63;;
55170;SDS011;41060;47.510;8.680;2022-08-19T12:41:07;17.23;;;8.77;;
55170;SDS011;41060;47.510;8.680;2022-08-19T12:43:37;16.63;;;8.73;;
55170;SDS011;41060;47.510;8.680;2022-08-19T12:46:05;17.33;;;9.55;;
55170;SDS011;41060;47.510;8.680;2022-08-19T12:48:34;20.58;;;10.68;;
55170;SDS011;41060;47.510;8.680;2022-08-19T12:51:05;16.67;;;9.13;;
55170;SDS011;41060;47.510;8.680;2022-08-19T12:53:32;18.52;;;9.85;;
55170;SDS011;41060;47.510;8.680;2022-08-19T12:56:00;18.48;;;10.07;;
55170;SDS011;41060;47.510;8.680;2022-08-19T12:58:27;19.25;;;9.50;;
55170;SDS011;41060;47.510;8.680;2022-08-19T13:00:54;16.90;;;8.73;;
55170;SDS011;41060;47.510;8.680;2022-08-19T13:03:23;20.48;;;9.60;;
55170;SDS011;41060;47.510;8.680;2022-08-19T13:05:54;18.50;;;10.00;;
55170;SDS011;41060;47.510;8.680;2022-08-19T13:08:21;15.23;;;10.10;;
55170;SDS011;41060;47.510;8.680;2022-08-19T13:10:48;18.52;;;10.10;;
55170;SDS011;41060;47.510;8.680;2022-08-19T13:13:16;17.92;;;9.23;;
55170;SDS011;41060;47.510;8.680;2022-08-19T13:15:43;17.67;;;9.18;;
55170;SDS011;41060;47.510;8.680;2022-08-19T13:18:10;21.80;;;9.05;;
55170;SDS011;41060;47.510;8.680;2022-08-19T13:20:39;18.60;;;9.95;;
55170;SDS011;41060;47.510;8.680;2022-08-19T13:23:07;19.45;;;9.95;;
55170;SDS011;41060;47.510;8.680;2022-08-19T13:25:34;19.52;;;10.32;;
55170;SDS011;41060;47.510;8.680;2022-08-19T13:28:02;22.60;;;10.68;;
55170;SDS011;41060;47.510;8.680;2022-08-19T13:30:32;18.80;;;10.35;;
55170;SDS011;41060;47.510;8.680;2022-08-19T13:33:16;19.75;;;9.13;;
55170;SDS011;41060;47.510;8.680;2022-08-19T13:35:46;20.17;;;10.52;;
55170;SDS011;41060;47.510;8.680;2022-08-19T13:38:15;18.38;;;9.70;;
55170;SDS011;41060;47.510;8.680;2022-08-19T13:40:44;17.52;;;9.32;;
55170;SDS011;41060;47.510;8.680;2022-08-19T13:43:12;16.00;;;8.88;;
55170;SDS011;41060;47.510;8.680;2022-08-19T13:45:40;19.48;;;9.55;;
55170;SDS011;41060;47.510;8.680;2022-08-19T13:48:07;18.85;;;9.85;;
55170;SDS011;41060;47.510;8.680;2022-08-19T13:50:42;18.48;;;8.75;;
55170;SDS011;41060;47.510;8.680;2022-08-19T13:53:13;19.23;;;9.52;;
55170;SDS011;41060;47.510;8.680;2022-08-19T13:55:41;17.52;;;9.38;;
55170;SDS011;41060;47.510;8.680;2022-08-19T13:58:09;18.65;;;10.90;;
55170;SDS011;41060;47.510;8.680;2022-08-19T14:00:38;18.30;;;10.32;;
55170;SDS011;41060;47.510;8.680;2022-08-19T14:03:07;19.95;;;9.68;;
55170;SDS011;41060;47.510;8.680;2022-08-19T14:05:34;15.75;;;9.20;;
55170;SDS011;41060;47.510;8.680;2022-08-19T14:08:03;18.15;;;10.02;;
55170;SDS011;41060;47.510;8.680;2022-08-19T14:10:32;15.80;;;9.68;;
55170;SDS011;41060;47.510;8.680;2022-08-19T14:13:00;20.98;;;10.02;;
55170;SDS011;41060;47.510;8.680;2022-08-19T14:15:29;20.67;;;10.38;;
55170;SDS011;41060;47.510;8.680;2022-08-19T14:17:56;18.20;;;9.05;;
55170;SDS011;41060;47.510;8.680;2022-08-19T14:20:23;23.17;;;10.63;;
55170;SDS011;41060;47.510;8.680;2022-08-19T14:22:51;16.63;;;9.50;;
55170;SDS011;41060;47.510;8.680;2022-08-19T14:25:23;19.45;;;9.60;;
55170;SDS011;41060;47.510;8.680;2022-08-19T14:27:53;15.13;;;8.80;;
55170;SDS011;41060;47.510;8.680;2022-08-19T14:30:22;17.38;;;9.48;;
55170;SDS011;41060;47.510;8.680;2022-08-19T14:32:52;15.55;;;8.50;;
55170;SDS011;41060;47.510;8.680;2022-08-19T14:35:19;19.38;;;9.20;;
55170;SDS011;41060;47.510;8.680;2022-08-19T14:37:47;14.32;;;8.70;;
55170;SDS011;41060;47.510;8.680;2022-08-19T14:40:16;16.23;;;8.68;;
55170;SDS011;41060;47.510;8.680;2022-08-19T14:42:46;19.95;;;9.13;;
55170;SDS011;41060;47.510;8.680;2022-08-19T14:45:14;23.65;;;9.82;;
55170;SDS011;41060;47.510;8.680;2022-08-19T14:47:41;15.38;;;9.07;;
55170;SDS011;41060;47.510;8.680;2022-08-19T14:50:09;16.30;;;9.07;;
55170;SDS011;41060;47.510;8.680;2022-08-19T14:52:36;22.75;;;10.20;;
55170;SDS011;41060;47.510;8.680;2022-08-19T14:55:07;18.83;;;9.88;;
55170;SDS011;41060;47.510;8.680;2022-08-19T14:57:34;16.27;;;9.15;;